Iberville, Canada
Current Conditions -  °F | °C
As of 11:00 AM on Wednesday 22 Oct 2014 (Local Time) from CYHU Reporting Station
Overcast Overcast  
Wind Chill: 39°   Ceiling: 6000
Heat Index: 46°   Visibility: 9mi
Dew Point: 37°   Wind: 18mph
Humidity: 71%   Direction: 40°NE
Pressure: 30.28"   Gusts: 26mph
Location:  45.32°N, 73.23°W
Report Text: CYHU 221500Z AUTO 04016G23KT 9SM OVC060 08/03 A3028 RMK SLP256
Loading
Personal Weather Stations






























Interactive Weather Map
Tropical Storm Tracking
New forecast layout! Learn more

10-Day Weather Forecast

Advertisements
Track Severe Weather on mobile